Time;durP1;ratioP1;P1;durP2;ratioP2;P2;SDS_P1;SDS_P2;PMS_P1;PMS_P2;Temp;Humidity;BMP_temperature;BMP_pressure;BME280_temperature;BME280_humidity;BME280_pressure;Samples;Min_cycle;Max_cycle;Signal;HPM_P1;HPM_P2
2023/12/21 00:01:11;;;;;;;1.20;1.20;;;;;;;8.41;100.00;99372.38;5107162;28;20220;-75
2023/12/21 00:03:38;;;;;;;1.37;1.27;;;;;;;8.42;100.00;99357.72;5099307;28;20194;-75
2023/12/21 00:06:06;;;;;;;0.90;0.90;;;;;;;8.49;100.00;99369.00;5106932;28;20224;-75
2023/12/21 00:08:33;;;;;;;0.80;0.80;;;;;;;8.50;100.00;99362.97;5077899;28;20205;-75
2023/12/21 00:11:00;;;;;;;1.23;1.23;;;;;;;8.48;100.00;99367.25;5100055;28;20717;-75
2023/12/21 00:13:27;;;;;;;0.80;0.80;;;;;;;8.26;100.00;99346.31;5101005;28;20692;-75
2023/12/21 00:15:54;;;;;;;0.70;0.70;;;;;;;8.38;100.00;99371.47;5098439;28;20670;-75
2023/12/21 00:18:21;;;;;;;1.47;1.47;;;;;;;8.44;100.00;99382.72;5105519;28;20196;-75
2023/12/21 00:20:48;;;;;;;1.17;1.17;;;;;;;8.45;100.00;99389.59;5097956;28;20674;-75
2023/12/21 00:23:16;;;;;;;2.03;1.93;;;;;;;8.46;100.00;99396.53;5093158;28;20586;-75
2023/12/21 00:25:43;;;;;;;0.70;0.70;;;;;;;8.38;100.00;99394.72;5094357;28;20209;-75
2023/12/21 00:28:10;;;;;;;1.00;1.00;;;;;;;8.29;100.00;99400.63;5094249;28;20202;-75
2023/12/21 00:30:36;;;;;;;1.83;1.73;;;;;;;8.01;100.00;99375.25;5093513;28;20225;-75
2023/12/21 00:33:03;;;;;;;1.53;1.47;;;;;;;8.17;100.00;99407.31;5105740;28;20204;-75
2023/12/21 00:35:30;;;;;;;0.90;0.90;;;;;;;7.95;100.00;99385.50;5097674;28;20687;-75
2023/12/21 00:37:57;;;;;;;4.93;4.00;;;;;;;7.97;100.00;99410.47;5107025;28;20223;-75
2023/12/21 00:40:25;;;;;;;1.13;1.13;;;;;;;8.03;100.00;99404.50;5108756;28;20653;-75
2023/12/21 00:42:51;;;;;;;1.07;1.07;;;;;;;7.95;100.00;99406.13;5060410;28;20194;-75
2023/12/21 00:45:19;;;;;;;1.80;1.70;;;;;;;7.95;100.00;99409.56;5094687;28;20271;-75
2023/12/21 00:47:46;;;;;;;8.53;2.87;;;;;;;7.84;100.00;99399.94;5092766;28;20642;-75
2023/12/21 00:50:12;;;;;;;1.00;1.00;;;;;;;7.85;100.00;99405.13;5093977;28;20230;-75
2023/12/21 00:52:39;;;;;;;2.00;1.00;;;;;;;7.72;100.00;99394.59;5092830;28;20198;-76
2023/12/21 00:55:07;;;;;;;1.63;1.63;;;;;;;7.59;100.00;99395.25;5093911;28;20645;-76
2023/12/21 00:57:35;;;;;;;1.10;1.10;;;;;;;7.70;100.00;99419.50;5094102;28;20732;-75
2023/12/21 01:00:02;;;;;;;2.20;2.10;;;;;;;7.72;100.00;99412.66;5099260;28;20206;-75
2023/12/21 01:02:29;;;;;;;1.93;1.87;;;;;;;7.66;100.00;99415.16;5112596;28;20206;-75
2023/12/21 01:04:55;;;;;;;2.53;2.37;;;;;;;7.64;100.00;99409.94;5103794;28;20595;-74
2023/12/21 01:07:22;;;;;;;1.63;1.60;;;;;;;7.61;100.00;99409.91;5093585;28;20594;-75
2023/12/21 01:09:49;;;;;;;2.33;2.07;;;;;;;7.37;100.00;99383.72;5097032;28;20649;-75
2023/12/21 01:12:16;;;;;;;1.37;1.33;;;;;;;7.24;100.00;99392.13;5092254;28;20202;-75
2023/12/21 01:14:44;;;;;;;1.60;1.57;;;;;;;7.35;100.00;99388.84;5102285;28;20645;-75
2023/12/21 01:17:11;;;;;;;2.33;2.23;;;;;;;7.37;100.00;99407.81;5112119;28;20197;-75
2023/12/21 01:19:38;;;;;;;7.03;4.20;;;;;;;7.36;100.00;99412.94;5101356;28;20205;-76
2023/12/21 01:22:04;;;;;;;6.70;6.10;;;;;;;7.25;100.00;99409.28;5102060;28;20227;-75
2023/12/21 01:24:31;;;;;;;3.73;3.50;;;;;;;7.13;100.00;99404.81;5072838;28;20274;-76
2023/12/21 01:26:58;;;;;;;1.00;1.00;;;;;;;7.08;100.00;99393.53;5111578;28;20204;-75
2023/12/21 01:29:25;;;;;;;3.33;1.43;;;;;;;7.09;100.00;99382.41;5108350;28;20198;-75
2023/12/21 01:31:53;;;;;;;1.73;1.47;;;;;;;7.08;100.00;99388.38;5108283;28;20284;-75
2023/12/21 01:34:20;;;;;;;3.33;2.90;;;;;;;7.06;100.00;99391.78;5097941;28;20225;-75
2023/12/21 01:36:47;;;;;;;2.00;1.90;;;;;;;7.04;100.00;99381.44;5097395;28;20194;-75
2023/12/21 01:39:14;;;;;;;1.70;1.70;;;;;;;6.85;100.00;99353.59;5101602;28;20700;-75
2023/12/21 01:41:42;;;;;;;2.60;2.37;;;;;;;7.01;100.00;99376.25;5111943;28;20896;-75
2023/12/21 01:44:09;;;;;;;4.10;3.07;;;;;;;6.87;100.00;99373.41;5102055;28;20619;-75
2023/12/21 01:46:36;;;;;;;1.87;1.77;;;;;;;6.86;100.00;99374.25;5093858;28;20202;-76
2023/12/21 01:49:05;;;;;;;1.47;1.47;;;;;;;6.89;100.00;99365.69;5094274;28;20193;-75
2023/12/21 01:51:33;;;;;;;2.40;1.73;;;;;;;6.82;100.00;99350.97;5092867;28;20210;-76
2023/12/21 01:54:03;;;;;;;2.03;1.93;;;;;;;6.59;100.00;99309.38;5040582;28;20194;-75
2023/12/21 01:56:30;;;;;;;5.30;3.60;;;;;;;6.80;100.00;99353.53;5056579;28;20665;-76
2023/12/21 01:58:57;;;;;;;2.67;2.50;;;;;;;6.82;100.00;99356.13;5091485;28;20248;-76
2023/12/21 02:01:26;;;;;;;2.63;2.53;;;;;;;6.80;100.00;99365.53;5091578;28;20198;-76
2023/12/21 02:03:54;;;;;;;2.43;2.17;;;;;;;6.59;100.00;99331.66;5092352;28;20194;-76
2023/12/21 02:06:22;;;;;;;3.57;3.37;;;;;;;6.79;100.00;99363.81;5094613;28;20693;-75
2023/12/21 02:08:49;;;;;;;4.23;3.03;;;;;;;6.65;100.00;99357.53;5091314;28;20209;-75
2023/12/21 02:11:16;;;;;;;1.97;1.77;;;;;;;6.49;100.00;99341.78;5091976;28;20218;-75
2023/12/21 02:13:43;;;;;;;2.40;2.30;;;;;;;6.67;100.00;99355.88;5091130;28;20209;-76
2023/12/21 02:16:15;;;;;;;3.00;2.80;;;;;;;6.67;100.00;99354.13;5092373;28;20194;-75
2023/12/21 02:18:43;;;;;;;2.70;2.60;;;;;;;6.67;100.00;99377.31;5109238;28;20611;-76
2023/12/21 02:21:12;;;;;;;1.73;1.63;;;;;;;6.29;100.00;99306.19;5093691;28;20212;-75
2023/12/21 02:23:42;;;;;;;1.47;1.47;;;;;;;6.43;100.00;99331.38;5107680;28;20661;-75
2023/12/21 02:26:11;;;;;;;10.20;3.00;;;;;;;6.34;100.00;99322.63;5090744;28;20281;-75
2023/12/21 02:28:38;;;;;;;1.43;1.43;;;;;;;6.37;100.00;99349.28;5055588;28;20563;-75
2023/12/21 02:31:04;;;;;;;1.13;1.13;;;;;;;6.28;100.00;99309.59;5089791;28;20732;-75
2023/12/21 02:33:31;;;;;;;1.60;1.60;;;;;;;6.31;100.00;99345.72;5099462;28;20631;-76
2023/12/21 02:35:58;;;;;;;2.53;2.43;;;;;;;6.36;100.00;99338.94;5092178;28;20201;-76
2023/12/21 02:38:25;;;;;;;2.03;1.93;;;;;;;6.27;100.00;99324.19;5106361;28;20205;-75
2023/12/21 02:40:51;;;;;;;3.73;3.53;;;;;;;6.35;100.00;99327.78;5094573;28;20690;-76
2023/12/21 02:43:20;;;;;;;2.13;1.83;;;;;;;6.41;100.00;99327.03;5051167;28;20576;-75
2023/12/21 02:45:46;;;;;;;3.03;2.33;;;;;;;6.23;100.00;99304.38;5090830;28;20198;-75
2023/12/21 02:48:13;;;;;;;1.87;1.80;;;;;;;6.33;100.00;99314.00;5094365;28;20197;-75
2023/12/21 02:50:40;;;;;;;2.57;2.37;;;;;;;6.32;100.00;99317.41;5091963;28;20221;-75
2023/12/21 02:53:07;;;;;;;2.23;2.13;;;;;;;6.22;100.00;99315.50;5106451;28;20209;-75
2023/12/21 02:55:35;;;;;;;4.97;3.60;;;;;;;6.22;100.00;99289.78;5090735;28;20273;-75
2023/12/21 02:58:02;;;;;;;2.13;2.03;;;;;;;6.26;100.00;99314.75;5090897;28;20305;-75
2023/12/21 03:00:30;;;;;;;2.43;2.27;;;;;;;6.21;100.00;99318.91;5090505;28;20194;-75
2023/12/21 03:02:57;;;;;;;1.10;1.10;;;;;;;6.19;100.00;99320.59;5071520;28;20190;-75
2023/12/21 03:05:23;;;;;;;1.80;1.73;;;;;;;6.15;100.00;99334.25;5097377;28;20195;-75
2023/12/21 03:07:52;;;;;;;3.80;2.80;;;;;;;6.19;100.00;99328.31;5099162;28;20205;-75
2023/12/21 03:10:19;;;;;;;1.70;1.53;;;;;;;6.15;100.00;99338.50;5051448;28;20217;-76
2023/12/21 03:12:46;;;;;;;2.30;2.20;;;;;;;5.89;100.00;99299.38;5090255;28;20737;-75
2023/12/21 03:15:13;;;;;;;2.13;1.83;;;;;;;6.02;100.00;99323.66;5092889;28;20314;-75
2023/12/21 03:17:41;;;;;;;2.30;1.93;;;;;;;6.12;100.00;99333.31;5096362;28;20642;-75
2023/12/21 03:20:09;;;;;;;2.63;2.53;;;;;;;6.08;100.00;99321.22;5097773;28;20202;-76
2023/12/21 03:22:36;;;;;;;1.40;1.30;;;;;;;6.07;100.00;99332.34;5088721;28;20198;-75
2023/12/21 03:25:02;;;;;;;2.80;2.70;;;;;;;6.05;100.00;99329.75;5085785;28;20201;-75
2023/12/21 03:27:29;;;;;;;3.27;3.03;;;;;;;6.03;100.00;99349.41;5092242;28;20198;-75
2023/12/21 03:29:56;;;;;;;3.10;2.80;;;;;;;6.01;100.00;99351.09;5089928;28;20193;-75
2023/12/21 03:32:23;;;;;;;1.07;1.07;;;;;;;6.01;100.00;99356.25;5091092;28;20222;-75
2023/12/21 03:34:51;;;;;;;1.70;1.70;;;;;;;6.03;100.00;99354.56;5089664;28;20229;-75
2023/12/21 03:37:18;;;;;;;3.50;2.10;;;;;;;5.99;100.00;99365.66;5094274;28;20623;-75
2023/12/21 03:39:44;;;;;;;1.47;1.23;;;;;;;5.84;100.00;99342.13;5091693;28;20225;-75
2023/12/21 03:42:11;;;;;;;1.77;1.77;;;;;;;5.94;100.00;99369.81;5091896;28;20205;-75
2023/12/21 03:44:38;;;;;;;1.10;1.10;;;;;;;5.72;100.00;99331.56;5093493;28;20252;-75
2023/12/21 03:47:05;;;;;;;4.47;3.37;;;;;;;5.91;100.00;99367.19;5093503;28;20652;-75
2023/12/21 03:49:32;;;;;;;1.50;1.43;;;;;;;5.88;100.00;99370.56;5088727;28;20204;-75
2023/12/21 03:52:00;;;;;;;1.40;1.40;;;;;;;5.80;100.00;99348.03;5093092;28;20210;-75
2023/12/21 03:54:26;;;;;;;2.63;2.40;;;;;;;5.84;100.00;99360.13;5094962;28;20198;-75
2023/12/21 03:56:53;;;;;;;6.00;3.07;;;;;;;5.73;100.00;99356.44;5045601;28;20202;-75
2023/12/21 03:59:20;;;;;;;2.10;2.00;;;;;;;5.75;100.00;99372.75;5093641;28;20209;-75
2023/12/21 04:01:47;;;;;;;2.00;2.00;;;;;;;5.76;100.00;99374.50;5105837;28;20641;-75
2023/12/21 04:04:13;;;;;;;5.67;1.93;;;;;;;5.71;100.00;99374.41;5038735;28;20203;-75
2023/12/21 04:06:40;;;;;;;1.20;1.20;;;;;;;5.70;100.00;99392.38;5051579;28;20191;-75
2023/12/21 04:09:08;;;;;;;4.27;2.27;;;;;;;5.77;100.00;99391.69;5086306;28;20210;-75
2023/12/21 04:11:35;;;;;;;1.50;1.50;;;;;;;5.75;100.00;99396.78;5084273;28;20218;-75
2023/12/21 04:14:02;;;;;;;6.50;2.10;;;;;;;5.71;100.00;99392.41;5067319;28;20229;-75
2023/12/21 04:16:29;;;;;;;4.03;2.50;;;;;;;5.58;100.00;99374.97;5103742;28;20190;-75
2023/12/21 04:18:56;;;;;;;2.00;1.63;;;;;;;5.70;100.00;99389.81;5069907;28;20198;-75
2023/12/21 04:21:22;;;;;;;3.90;3.70;;;;;;;5.71;100.00;99391.53;5097571;28;20202;-75
2023/12/21 04:23:49;;;;;;;1.90;1.80;;;;;;;5.63;100.00;99393.06;5077267;28;20202;-75
2023/12/21 04:26:22;;;;;;;3.50;3.20;;;;;;;5.74;100.00;99389.06;5094185;28;20273;-75
2023/12/21 04:28:50;;;;;;;1.80;1.70;;;;;;;5.61;100.00;99395.59;5093119;28;20194;-75
2023/12/21 04:31:20;;;;;;;1.90;1.90;;;;;;;5.62;100.00;99399.03;5092968;28;20232;-75
2023/12/21 04:33:51;;;;;;;1.07;1.07;;;;;;;5.58;100.00;99390.38;5093651;28;20696;-75
2023/12/21 04:36:18;;;;;;;1.20;1.20;;;;;;;5.50;100.00;99391.91;5103334;28;20236;-75
2023/12/21 04:38:45;;;;;;;2.13;2.03;;;;;;;5.36;100.00;99363.31;5099016;28;20586;-75
2023/12/21 04:41:12;;;;;;;1.20;1.20;;;;;;;5.57;100.00;99398.06;5109363;28;20194;-75
2023/12/21 04:43:40;;;;;;;1.07;1.07;;;;;;;5.60;100.00;99390.44;5096953;28;20202;-75
2023/12/21 04:46:07;;;;;;;7.93;2.60;;;;;;;5.66;100.00;99406.00;5093319;28;20269;-75
2023/12/21 04:48:34;;;;;;;0.93;0.93;;;;;;;5.56;100.00;99402.34;5104013;28;20254;-75
2023/12/21 04:51:02;;;;;;;1.30;1.30;;;;;;;5.12;100.00;99321.59;5106174;28;20583;-75
2023/12/21 04:53:29;;;;;;;1.53;1.53;;;;;;;5.39;100.00;99389.06;5099754;28;20746;-75
2023/12/21 04:55:56;;;;;;;1.00;1.00;;;;;;;5.59;100.00;99407.56;5093795;28;20304;-74
2023/12/21 04:58:22;;;;;;;1.23;1.23;;;;;;;5.52;100.00;99405.69;5093545;28;20191;-75
2023/12/21 05:00:51;;;;;;;1.17;1.17;;;;;;;5.34;100.00;99372.69;5102860;28;20191;-75
2023/12/21 05:03:19;;;;;;;1.23;1.23;;;;;;;5.36;100.00;99386.44;5102296;28;20385;-75
2023/12/21 05:05:46;;;;;;;1.50;1.50;;;;;;;5.35;100.00;99400.09;5092326;28;20237;-76
2023/12/21 05:08:13;;;;;;;1.33;1.33;;;;;;;5.36;100.00;99403.56;5108972;28;20233;-75
2023/12/21 05:10:40;;;;;;;2.07;1.97;;;;;;;5.32;100.00;99402.59;5068417;28;20206;-75
2023/12/21 05:13:07;;;;;;;2.40;2.20;;;;;;;5.37;100.00;99429.31;5111627;28;20224;-75
2023/12/21 05:15:34;;;;;;;1.17;1.17;;;;;;;5.46;100.00;99432.09;5111545;28;20193;-75
2023/12/21 05:18:02;;;;;;;1.00;1.00;;;;;;;5.55;100.00;99438.28;5094666;28;20607;-75
2023/12/21 05:20:29;;;;;;;3.33;1.97;;;;;;;5.45;100.00;99442.34;5092039;28;20213;-75
2023/12/21 05:22:55;;;;;;;1.40;1.40;;;;;;;5.44;100.00;99441.47;5105339;28;20201;-75
2023/12/21 05:25:22;;;;;;;0.80;0.80;;;;;;;5.49;100.00;99445.00;5097459;28;20198;-75
2023/12/21 05:27:49;;;;;;;1.27;1.27;;;;;;;5.35;100.00;99433.53;5099537;28;20289;-75
2023/12/21 05:30:18;;;;;;;4.27;2.03;;;;;;;5.35;100.00;99428.38;5073962;28;20196;-75
2023/12/21 05:32:45;;;;;;;1.10;1.10;;;;;;;5.08;100.00;99416.53;5093688;28;20265;-76
2023/12/21 05:35:14;;;;;;;1.73;1.63;;;;;;;5.31;100.00;99442.00;5103657;28;20225;-75
2023/12/21 05:37:41;;;;;;;2.63;2.43;;;;;;;5.24;100.00;99445.25;5089274;28;20225;-75
2023/12/21 05:40:08;;;;;;;1.00;1.00;;;;;;;5.22;100.00;99462.31;5111073;28;20233;-75
2023/12/21 05:42:35;;;;;;;2.30;2.10;;;;;;;5.17;100.00;99466.47;5056617;28;20186;-75
2023/12/21 05:45:02;;;;;;;2.83;2.50;;;;;;;5.06;100.00;99454.19;5091541;28;20202;-74
2023/12/21 05:47:31;;;;;;;1.03;1.03;;;;;;;5.28;100.00;99472.75;5091376;28;20233;-75
2023/12/21 05:49:58;;;;;;;0.80;0.80;;;;;;;5.32;100.00;99490.00;5111011;28;20193;-75
2023/12/21 05:52:26;;;;;;;1.17;1.17;;;;;;;5.18;100.00;99464.75;5092666;28;20217;-75
2023/12/21 05:54:53;;;;;;;3.97;3.00;;;;;;;5.05;100.00;99455.88;5104574;28;20205;-75
2023/12/21 05:57:20;;;;;;;1.10;1.10;;;;;;;5.11;100.00;99468.88;5100724;28;20197;-74
2023/12/21 05:59:46;;;;;;;1.00;1.00;;;;;;;5.09;100.00;99496.22;5106123;28;20197;-75
2023/12/21 06:02:13;;;;;;;3.10;2.07;;;;;;;5.31;100.00;99478.00;5091259;28;20233;-75
2023/12/21 06:04:40;;;;;;;0.80;0.80;;;;;;;5.32;100.00;99492.56;5092154;28;20195;-74
2023/12/21 06:07:07;;;;;;;2.10;1.90;;;;;;;5.25;100.00;99497.50;5092223;28;20198;-78
2023/12/21 06:09:35;;;;;;;2.10;1.57;;;;;;;5.34;100.00;99498.63;5094157;28;20198;-80
2023/12/21 06:12:02;;;;;;;2.43;1.10;;;;;;;5.34;100.00;99513.19;5096722;28;20229;-81
2023/12/21 06:14:29;;;;;;;0.80;0.80;;;;;;;5.39;100.00;99517.59;5117235;28;20681;-77
2023/12/21 06:16:56;;;;;;;1.37;1.27;;;;;;;5.31;100.00;99524.25;5109076;28;20198;-79
2023/12/21 06:19:24;;;;;;;7.10;2.07;;;;;;;5.23;100.00;99524.88;5105550;28;20207;-77
2023/12/21 06:21:51;;;;;;;1.37;1.37;;;;;;;5.27;100.00;99521.56;5090009;28;20210;-81
2023/12/21 06:24:17;;;;;;;0.80;0.80;;;;;;;4.92;100.00;99476.94;5095128;28;20202;-79
2023/12/21 06:26:45;;;;;;;1.10;1.10;;;;;;;5.09;100.00;99495.34;5095624;28;20639;-78
2023/12/21 06:29:12;;;;;;;1.73;1.73;;;;;;;5.33;100.00;99517.44;5080485;28;20208;-77
2023/12/21 06:31:39;;;;;;;1.07;1.07;;;;;;;5.22;100.00;99529.13;5082185;28;20199;-77
2023/12/21 06:34:06;;;;;;;2.10;2.00;;;;;;;5.31;100.00;99533.66;5093079;28;20685;-80
2023/12/21 06:36:33;;;;;;;2.93;1.37;;;;;;;5.28;100.00;99519.00;5093726;28;20690;-80
2023/12/21 06:38:59;;;;;;;0.97;0.97;;;;;;;5.33;100.00;99522.59;5057448;28;20206;-77
2023/12/21 06:41:27;;;;;;;1.20;1.20;;;;;;;5.41;100.00;99533.94;5077175;28;20736;-79
2023/12/21 06:43:55;;;;;;;0.83;0.83;;;;;;;5.44;100.00;99541.72;5085647;28;20210;-78
2023/12/21 06:46:21;;;;;;;1.10;1.10;;;;;;;5.41;100.00;99527.94;5083710;28;20670;-79
2023/12/21 06:48:48;;;;;;;0.77;0.77;;;;;;;5.12;100.00;99469.75;5091947;28;20201;-80
2023/12/21 06:51:15;;;;;;;1.20;1.20;;;;;;;5.44;100.00;99505.75;5096264;28;20198;-76
2023/12/21 06:53:42;;;;;;;1.93;1.30;;;;;;;5.60;100.00;99537.00;5056534;28;20250;-77
2023/12/21 06:56:10;;;;;;;0.97;0.97;;;;;;;5.69;100.00;99548.38;5085185;28;20198;-77
2023/12/21 06:58:37;;;;;;;1.50;1.50;;;;;;;5.71;100.00;99546.69;5083577;28;20241;-77
2023/12/21 07:01:05;;;;;;;1.73;1.63;;;;;;;5.60;100.00;99516.44;5093405;28;20202;-79
2023/12/21 07:03:32;;;;;;;1.37;1.37;;;;;;;5.66;100.00;99524.28;5075315;28;20565;-79
2023/12/21 07:05:59;;;;;;;1.93;1.83;;;;;;;5.84;100.00;99545.31;5068190;28;20664;-78
2023/12/21 07:08:25;;;;;;;0.90;0.90;;;;;;;5.86;100.00;99551.41;5054660;28;20222;-76
2023/12/21 07:10:53;;;;;;;1.33;1.33;;;;;;;5.44;100.00;99500.59;5065871;28;20198;-78
2023/12/21 07:13:20;;;;;;;1.97;1.87;;;;;;;5.76;100.00;99546.81;5077180;28;20694;-78
2023/12/21 07:15:47;;;;;;;2.00;1.80;;;;;;;5.83;100.00;99562.47;5078789;28;20194;-78
2023/12/21 07:18:15;;;;;;;2.80;2.60;;;;;;;5.76;100.00;99529.69;5059566;28;20591;-78
2023/12/21 07:20:42;;;;;;;1.53;1.00;;;;;;;5.79;100.00;99531.47;5102140;28;20209;-78
2023/12/21 07:23:09;;;;;;;4.03;2.43;;;;;;;5.45;100.00;99450.06;5059684;28;20205;-78
2023/12/21 07:25:36;;;;;;;2.50;2.07;;;;;;;5.86;100.00;99533.41;5098107;28;20198;-79
2023/12/21 07:28:03;;;;;;;1.00;1.00;;;;;;;6.06;100.00;99559.63;5098526;28;20206;-78
2023/12/21 07:30:30;;;;;;;1.37;1.33;;;;;;;5.87;100.00;99537.72;5097500;28;20198;-80
2023/12/21 07:32:56;;;;;;;0.70;0.70;;;;;;;6.12;100.00;99559.75;5086704;28;20230;-79
2023/12/21 07:35:24;;;;;;;2.23;2.07;;;;;;;6.18;100.00;99567.63;5092090;28;20706;-79
2023/12/21 07:37:51;;;;;;;2.30;2.20;;;;;;;6.18;100.00;99547.91;5082715;28;20198;-79
2023/12/21 07:40:18;;;;;;;1.20;1.20;;;;;;;6.28;100.00;99583.31;5090444;28;20209;-79
2023/12/21 07:42:45;;;;;;;3.70;3.40;;;;;;;6.30;100.00;99571.38;5099681;28;20248;-80
2023/12/21 07:45:11;;;;;;;2.50;2.33;;;;;;;6.34;100.00;99573.19;5099668;28;20209;-79
2023/12/21 07:47:37;;;;;;;0.90;0.90;;;;;;;6.28;100.00;99575.59;5089832;28;20209;-79
2023/12/21 07:50:05;;;;;;;0.90;0.90;;;;;;;6.46;100.00;99588.91;5092767;28;20198;-79
2023/12/21 07:52:33;;;;;;;1.10;1.10;;;;;;;6.52;100.00;99575.31;5059071;28;20317;-79
2023/12/21 07:55:00;;;;;;;1.20;1.20;;;;;;;6.49;100.00;99583.81;5087714;28;20593;-79
2023/12/21 07:57:27;;;;;;;1.00;1.00;;;;;;;6.56;100.00;99581.41;5097948;28;20221;-79
2023/12/21 07:59:53;;;;;;;1.17;1.17;;;;;;;6.71;100.00;99594.59;5060484;28;20214;-79
2023/12/21 08:02:20;;;;;;;1.03;1.03;;;;;;;6.77;100.00;99554.44;5084217;28;20279;-78
2023/12/21 08:04:47;;;;;;;1.00;1.00;;;;;;;7.14;100.00;99586.09;5084374;28;20213;-78
2023/12/21 08:07:14;;;;;;;2.43;1.67;;;;;;;6.82;100.00;99582.84;5094716;28;20206;-79
2023/12/21 08:09:43;;;;;;;1.80;1.70;;;;;;;6.83;100.00;99594.91;5081717;28;20198;-78
2023/12/21 08:12:10;;;;;;;0.93;0.93;;;;;;;6.72;100.00;99560.28;5090345;28;20565;-79
2023/12/21 08:14:37;;;;;;;1.67;1.63;;;;;;;7.02;100.00;99596.16;5081170;28;20279;-80
2023/12/21 08:17:09;;;;;;;1.90;1.77;;;;;;;7.01;100.00;99600.44;5092281;28;20285;-80
2023/12/21 08:19:36;;;;;;;1.80;1.80;;;;;;;7.07;100.00;99598.00;5099795;28;20205;-79
2023/12/21 08:22:03;;;;;;;1.00;1.00;;;;;;;7.25;100.00;99602.66;5097079;28;20217;-79
2023/12/21 08:24:29;;;;;;;2.30;1.47;;;;;;;7.23;100.00;99606.94;5101423;28;20206;-77
2023/12/21 08:26:57;;;;;;;2.20;2.13;;;;;;;7.02;100.00;99519.72;5093887;28;20213;-78
2023/12/21 08:29:24;;;;;;;0.87;0.87;;;;;;;7.35;100.00;99587.41;5094231;28;20243;-80
2023/12/21 08:31:51;;;;;;;2.27;2.07;;;;;;;7.56;100.00;99581.81;5093421;28;20206;-79
2023/12/21 08:34:18;;;;;;;2.07;1.67;;;;;;;7.53;100.00;99596.34;5093529;28;20610;-80
2023/12/21 08:36:44;;;;;;;1.30;1.30;;;;;;;7.49;100.00;99579.97;5093632;28;20198;-80
2023/12/21 08:39:11;;;;;;;2.03;1.93;;;;;;;7.69;100.00;99578.59;5081882;28;20206;-80
2023/12/21 08:41:38;;;;;;;1.80;1.50;;;;;;;7.63;100.00;99577.63;5091284;28;20648;-80
2023/12/21 08:44:07;;;;;;;1.17;1.17;;;;;;;7.85;100.00;99579.72;5093130;28;20636;-81
2023/12/21 08:46:34;;;;;;;1.00;1.00;;;;;;;7.85;100.00;99578.03;5092854;28;20198;-80
2023/12/21 08:49:01;;;;;;;0.97;0.97;;;;;;;7.85;100.00;99571.97;5068720;28;20198;-80
2023/12/21 08:51:28;;;;;;;2.60;2.50;;;;;;;7.99;100.00;99583.41;5042103;28;20292;-80
2023/12/21 08:53:55;;;;;;;2.17;2.07;;;;;;;7.93;100.00;99553.22;5041504;28;20222;-81
2023/12/21 08:56:22;;;;;;;1.27;1.27;;;;;;;7.77;100.00;99514.25;5093520;28;20232;-81
2023/12/21 08:58:49;;;;;;;2.03;1.93;;;;;;;7.63;100.00;99526.03;5093403;28;20229;-81
2023/12/21 09:01:17;;;;;;;2.13;2.03;;;;;;;7.91;100.00;99554.91;5093368;28;20206;-80
2023/12/21 09:03:44;;;;;;;1.73;1.63;;;;;;;7.21;100.00;99426.41;5092976;28;20198;-80
2023/12/21 09:06:11;;;;;;;1.13;1.13;;;;;;;7.73;100.00;99533.09;5093716;28;20209;-80
2023/12/21 09:08:37;;;;;;;1.03;1.03;;;;;;;7.71;100.00;99545.06;5091485;28;20194;-80
2023/12/21 09:11:05;;;;;;;0.87;0.87;;;;;;;7.97;100.00;99564.47;5093570;28;20205;-80
2023/12/21 09:13:32;;;;;;;2.20;2.03;;;;;;;7.80;100.00;99524.59;5093806;28;20225;-80
2023/12/21 09:15:59;;;;;;;1.40;1.40;;;;;;;7.74;100.00;99529.66;5093736;28;20662;-80
2023/12/21 09:18:27;;;;;;;1.87;1.83;;;;;;;7.78;100.00;99567.56;5093269;28;20202;-81
2023/12/21 09:20:54;;;;;;;2.77;2.67;;;;;;;7.88;100.00;99552.25;5091435;28;20213;-81
2023/12/21 09:23:21;;;;;;;2.27;1.80;;;;;;;7.84;100.00;99552.22;5092594;28;20205;-80
2023/12/21 09:25:47;;;;;;;4.13;3.83;;;;;;;7.81;100.00;99536.69;5074528;28;20199;-75
2023/12/21 09:28:14;;;;;;;1.57;1.50;;;;;;;7.96;100.00;99544.66;5090314;28;20198;-76
2023/12/21 09:30:41;;;;;;;0.97;0.97;;;;;;;7.89;100.00;99545.38;5079387;28;20591;-75
2023/12/21 09:33:08;;;;;;;3.73;3.53;;;;;;;7.74;100.00;99535.69;5091512;28;20612;-79
2023/12/21 09:35:36;;;;;;;1.27;1.27;;;;;;;7.96;100.00;99548.09;5078891;28;20198;-83
2023/12/21 09:38:03;;;;;;;2.10;2.00;;;;;;;8.08;100.00;99531.09;5093922;28;20670;-75
2023/12/21 09:40:31;;;;;;;2.47;2.30;;;;;;;8.44;100.00;99558.38;5077318;28;20310;-78
2023/12/21 09:43:04;;;;;;;1.37;1.37;;;;;;;8.50;100.00;99557.59;5092440;28;20234;-80
2023/12/21 09:45:32;;;;;;;2.33;2.13;;;;;;;8.46;100.00;99555.81;5092313;28;20202;-79
2023/12/21 09:48:00;;;;;;;1.20;1.07;;;;;;;8.50;100.00;99546.38;5092676;28;20202;-78
2023/12/21 09:50:29;;;;;;;2.43;2.33;;;;;;;8.51;100.00;99550.72;5092174;28;20212;-78
2023/12/21 09:52:59;;;;;;;0.93;0.93;;;;;;;8.31;100.00;99529.78;5091969;28;20230;-78
2023/12/21 09:55:30;;;;;;;2.33;1.93;;;;;;;7.96;100.00;99487.88;5058678;28;20202;-78
2023/12/21 09:57:58;;;;;;;0.87;0.87;;;;;;;8.34;100.00;99535.84;5084058;28;20210;-74
2023/12/21 10:00:25;;;;;;;0.90;0.90;;;;;;;8.30;100.00;99533.19;5071346;28;20638;-81
2023/12/21 10:02:52;;;;;;;2.77;2.60;;;;;;;8.03;100.00;99528.41;5092082;28;20662;-81
2023/12/21 10:05:19;;;;;;;1.27;1.27;;;;;;;7.74;100.00;99521.94;5093809;28;20705;-81
2023/12/21 10:07:46;;;;;;;1.83;1.83;;;;;;;7.81;100.00;99521.19;5093694;28;20198;-81
2023/12/21 10:10:17;;;;;;;7.30;2.80;;;;;;;7.92;100.00;99519.63;5093227;28;20601;-80
2023/12/21 10:12:44;;;;;;;2.13;1.93;;;;;;;7.97;100.00;99507.69;5091949;28;20293;-81
2023/12/21 10:15:12;;;;;;;3.90;2.10;;;;;;;7.88;100.00;99490.31;5082539;28;20206;-81
2023/12/21 10:17:39;;;;;;;1.97;1.23;;;;;;;7.93;100.00;99503.31;5085465;28;20201;-82
2023/12/21 10:20:11;;;;;;;2.23;1.63;;;;;;;7.96;100.00;99505.94;5076440;28;20732;-76
2023/12/21 10:22:39;;;;;;;1.70;1.70;;;;;;;8.20;100.00;99500.31;5022668;28;20198;-76
2023/12/21 10:25:07;;;;;;;1.27;1.27;;;;;;;8.17;100.00;99488.19;5084228;28;20217;-77
2023/12/21 10:27:36;;;;;;;2.60;2.50;;;;;;;8.28;100.00;99493.50;5071758;28;20202;-78
2023/12/21 10:30:04;;;;;;;0.70;0.70;;;;;;;8.30;100.00;99478.97;5090486;28;20287;-72
2023/12/21 10:32:31;;;;;;;1.30;1.30;;;;;;;8.40;100.00;99481.69;5083693;28;20226;-73
2023/12/21 10:34:59;;;;;;;2.30;2.10;;;;;;;8.13;100.00;99464.91;5090765;28;20234;-82
2023/12/21 10:37:26;;;;;;;0.83;0.83;;;;;;;8.33;100.00;99482.44;5091221;28;20206;-80
2023/12/21 10:39:56;;;;;;;1.57;1.57;;;;;;;8.40;100.00;99481.69;5090891;28;20662;-80
2023/12/21 10:42:23;;;;;;;2.17;2.17;;;;;;;8.24;100.00;99433.22;5091033;28;20206;-81
2023/12/21 10:44:51;;;;;;;1.43;1.43;;;;;;;8.43;100.00;99467.94;5076879;28;20210;-72
2023/12/21 10:47:19;;;;;;;2.40;2.20;;;;;;;8.52;100.00;99446.53;5090905;28;20201;-77
2023/12/21 10:49:46;;;;;;;1.53;1.53;;;;;;;8.87;100.00;99466.81;5090826;28;20229;-78
2023/12/21 10:52:13;;;;;;;1.23;1.23;;;;;;;8.82;100.00;99459.81;5089588;28;20221;-75
2023/12/21 10:54:42;;;;;;;1.90;1.80;;;;;;;8.92;100.00;99462.53;5090841;28;20230;-75
2023/12/21 10:57:10;;;;;;;2.53;1.60;;;;;;;8.85;100.00;99429.72;5090882;28;20285;-74
2023/12/21 10:59:38;;;;;;;2.13;2.03;;;;;;;9.02;100.00;99440.25;5090667;28;20209;-73
2023/12/21 11:02:13;;;;;;;1.43;1.43;;;;;;;9.06;100.00;99428.22;5094602;28;20198;-73
2023/12/21 11:04:43;;;;;;;1.80;1.70;;;;;;;9.14;100.00;99419.69;5097085;28;20201;-74
2023/12/21 11:07:12;;;;;;;1.60;1.50;;;;;;;9.07;100.00;99415.28;5082162;28;20202;-74
2023/12/21 11:09:41;;;;;;;1.00;1.00;;;;;;;9.02;100.00;99411.81;5092692;28;20208;-74
2023/12/21 11:12:08;;;;;;;1.00;1.00;;;;;;;8.95;100.00;99402.25;5090223;28;20586;-73
2023/12/21 11:14:35;;;;;;;1.70;1.60;;;;;;;8.61;100.00;99363.97;5090574;28;20226;-72
2023/12/21 11:17:04;;;;;;;1.00;1.00;;;;;;;9.00;100.00;99397.13;5090536;28;20206;-72
2023/12/21 11:19:35;;;;;;;3.20;2.13;;;;;;;9.03;100.00;99405.78;5092728;28;20252;-72
2023/12/21 11:22:04;;;;;;;1.47;1.47;;;;;;;9.10;100.00;99404.97;5090072;28;20217;-71
2023/12/21 11:24:31;;;;;;;7.30;2.07;;;;;;;9.12;100.00;99405.88;5090860;28;20229;-72
2023/12/21 11:26:59;;;;;;;1.80;1.70;;;;;;;8.87;100.00;99380.63;5090902;28;20241;-78
2023/12/21 11:29:27;;;;;;;2.30;2.20;;;;;;;8.77;100.00;99371.91;5091266;28;20194;-78
2023/12/21 11:31:54;;;;;;;1.80;1.63;;;;;;;8.89;100.00;99360.81;5072321;28;20317;-77
2023/12/21 11:34:34;;;;;;;1.30;1.30;;;;;;;8.97;100.00;99354.00;5090761;28;20230;-71